SCQW weather

Quemchi Airport
Quemchi, Los Lagos Region, Chile

Public forecast

Using degrees Celsius for public forecast. Weather courtesy of forecast.io.

METAR (pilot weather report)

Closest report is Mocopulli Airport, 14.3 nm (26.5 km) SW. Retrieved 2019/02/16 19:00 UTC (50 minutes ago):

SCPQ 161900Z 13007KT 070V180 CAVOK 24/14 Q1016

TAF (pilot weather forecast)

Forecast is more than 6 hours old.

Closest forecast is Mocopulli Airport, 14.3 nm (26.5 km) SW. Retrieved 2019/02/16 12:00 UTC (8 hours ago):

TAF SCPQ 161039Z 1612/1700 20010KT CAVOK TN15/1612Z TX21/1620Z